sensor_id;sensor_type;location;lat;lon;timestamp;pressure;altitude;pressure_sealevel;temperature;humidity
70217;BME280;65567;55.684;37.570;2022-12-18T00:01:18;98694.50;;;-0.88;75.21
70217;BME280;65567;55.684;37.570;2022-12-18T00:03:45;98677.41;;;-0.92;75.90
70217;BME280;65567;55.684;37.570;2022-12-18T00:06:13;98673.13;;;-0.93;75.20
70217;BME280;65567;55.684;37.570;2022-12-18T00:08:40;98671.38;;;-0.90;74.58
70217;BME280;65567;55.684;37.570;2022-12-18T00:11:10;98667.13;;;-0.92;75.50
70217;BME280;65567;55.684;37.570;2022-12-18T00:13:36;98641.50;;;-0.98;75.73
70217;BME280;65567;55.684;37.570;2022-12-18T00:16:03;98657.78;;;-1.00;75.52
70217;BME280;65567;55.684;37.570;2022-12-18T00:18:29;98654.41;;;-1.05;75.15
70217;BME280;65567;55.684;37.570;2022-12-18T00:20:58;98658.63;;;-0.99;74.87
70217;BME280;65567;55.684;37.570;2022-12-18T00:23:25;98662.09;;;-1.00;75.79
70217;BME280;65567;55.684;37.570;2022-12-18T00:25:51;98656.09;;;-1.02;75.40
70217;BME280;65567;55.684;37.570;2022-12-18T00:28:17;98653.53;;;-1.02;75.22
70217;BME280;65567;55.684;37.570;2022-12-18T00:30:43;98651.81;;;-1.00;75.24
70217;BME280;65567;55.684;37.570;2022-12-18T00:33:09;98638.09;;;-1.02;75.40
70217;BME280;65567;55.684;37.570;2022-12-18T00:35:35;98635.50;;;-0.97;74.76
70217;BME280;65567;55.684;37.570;2022-12-18T00:38:04;98642.38;;;-1.01;75.79
70217;BME280;65567;55.684;37.570;2022-12-18T00:40:31;98640.66;;;-1.01;75.23
70217;BME280;65567;55.684;37.570;2022-12-18T00:42:57;98622.81;;;-1.11;75.72
70217;BME280;65567;55.684;37.570;2022-12-18T00:45:28;98622.72;;;-1.07;76.19
70217;BME280;65567;55.684;37.570;2022-12-18T00:47:55;98621.06;;;-1.08;75.48
70217;BME280;65567;55.684;37.570;2022-12-18T00:50:23;98621.84;;;-1.03;75.55
70217;BME280;65567;55.684;37.570;2022-12-18T00:52:50;98611.56;;;-1.03;75.47
70217;BME280;65567;55.684;37.570;2022-12-18T00:55:16;98611.53;;;-1.01;75.24
70217;BME280;65567;55.684;37.570;2022-12-18T00:57:42;98599.50;;;-0.99;75.13
70217;BME280;65567;55.684;37.570;2022-12-18T01:00:11;98586.63;;;-0.96;74.85
70217;BME280;65567;55.684;37.570;2022-12-18T01:02:39;98582.31;;;-0.95;75.07
70217;BME280;65567;55.684;37.570;2022-12-18T01:05:06;98581.50;;;-0.97;75.18
70217;BME280;65567;55.684;37.570;2022-12-18T01:07:32;98573.84;;;-1.02;74.70
70217;BME280;65567;55.684;37.570;2022-12-18T01:09:58;98569.56;;;-1.03;74.95
70217;BME280;65567;55.684;37.570;2022-12-18T01:12:24;98567.03;;;-1.05;75.29
70217;BME280;65567;55.684;37.570;2022-12-18T01:14:50;98583.25;;;-1.01;75.07
70217;BME280;65567;55.684;37.570;2022-12-18T01:17:16;98573.03;;;-1.06;75.39
70217;BME280;65567;55.684;37.570;2022-12-18T01:19:41;98561.84;;;-1.02;75.16
70217;BME280;65567;55.684;37.570;2022-12-18T01:22:08;98566.09;;;-1.01;75.04
70217;BME280;65567;55.684;37.570;2022-12-18T01:24:34;98552.38;;;-1.00;74.67
70217;BME280;65567;55.684;37.570;2022-12-18T01:27:00;98572.13;;;-1.02;75.00
70217;BME280;65567;55.684;37.570;2022-12-18T01:29:25;98572.13;;;-1.00;74.88
70217;BME280;65567;55.684;37.570;2022-12-18T01:31:55;98586.66;;;-0.97;74.50
70217;BME280;65567;55.684;37.570;2022-12-18T01:34:23;98579.78;;;-0.97;74.85
70217;BME280;65567;55.684;37.570;2022-12-18T01:36:49;98575.47;;;-0.96;74.73
70217;BME280;65567;55.684;37.570;2022-12-18T01:39:18;98576.34;;;-0.96;75.77
70217;BME280;65567;55.684;37.570;2022-12-18T01:41:45;98568.66;;;-0.97;75.33
70217;BME280;65567;55.684;37.570;2022-12-18T01:44:55;98560.94;;;-0.97;75.48
70217;BME280;65567;55.684;37.570;2022-12-18T01:47:32;98563.47;;;-0.96;75.50
70217;BME280;65567;55.684;37.570;2022-12-18T01:50:03;98562.59;;;-0.93;75.48
70217;BME280;65567;55.684;37.570;2022-12-18T01:52:31;98562.63;;;-0.96;75.45
70217;BME280;65567;55.684;37.570;2022-12-18T01:54:59;98565.91;;;-0.87;75.26
70217;BME280;65567;55.684;37.570;2022-12-18T01:57:27;98567.63;;;-0.86;75.29
70217;BME280;65567;55.684;37.570;2022-12-18T01:59:57;98566.72;;;-0.83;75.53
70217;BME280;65567;55.684;37.570;2022-12-18T02:02:26;98560.69;;;-0.80;75.30
70217;BME280;65567;55.684;37.570;2022-12-18T02:04:53;98548.63;;;-0.78;75.16
70217;BME280;65567;55.684;37.570;2022-12-18T02:10:20;98550.34;;;-0.77;76.18
70217;BME280;65567;55.684;37.570;2022-12-18T02:12:58;98544.38;;;-0.81;75.90
70217;BME280;65567;55.684;37.570;2022-12-18T02:18:20;98564.03;;;-0.75;76.84
70217;BME280;65567;55.684;37.570;2022-12-18T02:26:27;98568.25;;;-0.71;76.34
70217;BME280;65567;55.684;37.570;2022-12-18T02:29:04;98562.19;;;-0.69;76.42
70217;BME280;65567;55.684;37.570;2022-12-18T02:31:40;98553.63;;;-0.68;76.35
70217;BME280;65567;55.684;37.570;2022-12-18T02:34:09;98546.75;;;-0.67;76.53
70217;BME280;65567;55.684;37.570;2022-12-18T02:36:40;98557.88;;;-0.67;76.51
70217;BME280;65567;55.684;37.570;2022-12-18T02:39:09;98541.63;;;-0.69;76.37
70217;BME280;65567;55.684;37.570;2022-12-18T02:41:36;98556.13;;;-0.64;76.15
70217;BME280;65567;55.684;37.570;2022-12-18T02:44:09;98561.25;;;-0.63;76.33
70217;BME280;65567;55.684;37.570;2022-12-18T02:55:00;98561.22;;;-0.61;76.47
70217;BME280;65567;55.684;37.570;2022-12-18T03:00:14;98555.16;;;-0.59;76.53
70217;BME280;65567;55.684;37.570;2022-12-18T03:05:43;98530.41;;;-0.64;77.26
70217;BME280;65567;55.684;37.570;2022-12-18T03:08:33;98535.50;;;-0.60;76.96
70217;BME280;65567;55.684;37.570;2022-12-18T03:11:05;98543.19;;;-0.58;76.47
70217;BME280;65567;55.684;37.570;2022-12-18T03:13:50;98549.19;;;-0.59;76.90
70217;BME280;65567;55.684;37.570;2022-12-18T03:16:28;98550.94;;;-0.61;76.90
70217;BME280;65567;55.684;37.570;2022-12-18T03:19:07;98549.25;;;-0.62;77.53
70217;BME280;65567;55.684;37.570;2022-12-18T03:21:45;98554.41;;;-0.62;77.38
70217;BME280;65567;55.684;37.570;2022-12-18T03:24:11;98553.47;;;-0.58;76.82
70217;BME280;65567;55.684;37.570;2022-12-18T03:26:41;98573.19;;;-0.60;77.28
70217;BME280;65567;55.684;37.570;2022-12-18T03:29:13;98561.19;;;-0.58;77.08
70217;BME280;65567;55.684;37.570;2022-12-18T03:31:47;98551.72;;;-0.58;77.30
70217;BME280;65567;55.684;37.570;2022-12-18T03:34:19;98549.13;;;-0.56;76.56
70217;BME280;65567;55.684;37.570;2022-12-18T03:36:47;98555.09;;;-0.54;76.87
70217;BME280;65567;55.684;37.570;2022-12-18T03:39:13;98559.41;;;-0.56;76.90
70217;BME280;65567;55.684;37.570;2022-12-18T03:41:48;98557.78;;;-0.60;77.16
70217;BME280;65567;55.684;37.570;2022-12-18T03:47:02;98547.38;;;-0.54;77.02
70217;BME280;65567;55.684;37.570;2022-12-18T03:49:38;98555.97;;;-0.55;77.09
70217;BME280;65567;55.684;37.570;2022-12-18T03:52:22;98547.41;;;-0.56;77.45
70217;BME280;65567;55.684;37.570;2022-12-18T03:54:50;98546.56;;;-0.56;76.72
70217;BME280;65567;55.684;37.570;2022-12-18T03:57:22;98548.28;;;-0.57;77.32
70217;BME280;65567;55.684;37.570;2022-12-18T03:59:54;98559.41;;;-0.56;76.99
70217;BME280;65567;55.684;37.570;2022-12-18T04:02:23;98550.81;;;-0.55;76.99
70217;BME280;65567;55.684;37.570;2022-12-18T04:04:52;98541.34;;;-0.52;76.84
70217;BME280;65567;55.684;37.570;2022-12-18T04:07:20;98538.81;;;-0.53;77.00
70217;BME280;65567;55.684;37.570;2022-12-18T04:09:48;98549.94;;;-0.53;77.01
70217;BME280;65567;55.684;37.570;2022-12-18T04:12:15;98551.66;;;-0.55;77.06
70217;BME280;65567;55.684;37.570;2022-12-18T04:14:41;98564.53;;;-0.53;77.00
70217;BME280;65567;55.684;37.570;2022-12-18T04:17:07;98585.94;;;-0.53;77.04
70217;BME280;65567;55.684;37.570;2022-12-18T04:19:33;98600.53;;;-0.53;76.80
70217;BME280;65567;55.684;37.570;2022-12-18T04:21:59;98592.03;;;-0.58;77.61
70217;BME280;65567;55.684;37.570;2022-12-18T04:24:25;98589.44;;;-0.57;76.96
70217;BME280;65567;55.684;37.570;2022-12-18T04:26:51;98597.94;;;-0.52;76.91
70217;BME280;65567;55.684;37.570;2022-12-18T04:29:17;98598.00;;;-0.56;77.30
70217;BME280;65567;55.684;37.570;2022-12-18T04:31:44;98606.53;;;-0.53;77.30
70217;BME280;65567;55.684;37.570;2022-12-18T04:34:09;98605.69;;;-0.53;77.24
70217;BME280;65567;55.684;37.570;2022-12-18T04:36:35;98633.97;;;-0.53;77.13
70217;BME280;65567;55.684;37.570;2022-12-18T04:39:01;98626.28;;;-0.53;76.99
70217;BME280;65567;55.684;37.570;2022-12-18T04:41:27;98628.84;;;-0.55;77.31
70217;BME280;65567;55.684;37.570;2022-12-18T04:43:53;98624.66;;;-0.60;77.42
70217;BME280;65567;55.684;37.570;2022-12-18T04:46:19;98631.44;;;-0.56;76.95
70217;BME280;65567;55.684;37.570;2022-12-18T04:48:45;98652.00;;;-0.53;77.22
70217;BME280;65567;55.684;37.570;2022-12-18T04:51:12;98636.56;;;-0.53;77.15
70217;BME280;65567;55.684;37.570;2022-12-18T04:53:38;98639.13;;;-0.53;77.24
70217;BME280;65567;55.684;37.570;2022-12-18T04:58:30;98644.31;;;-0.56;77.15
70217;BME280;65567;55.684;37.570;2022-12-18T05:00:56;98645.94;;;-0.52;77.13
70217;BME280;65567;55.684;37.570;2022-12-18T05:03:22;98633.97;;;-0.53;77.02
70217;BME280;65567;55.684;37.570;2022-12-18T05:05:51;98633.16;;;-0.55;77.46
70217;BME280;65567;55.684;37.570;2022-12-18T05:08:18;98639.13;;;-0.55;77.06
70217;BME280;65567;55.684;37.570;2022-12-18T05:10:44;98645.13;;;-0.54;77.18
70217;BME280;65567;55.684;37.570;2022-12-18T05:13:10;98650.28;;;-0.54;77.19
70217;BME280;65567;55.684;37.570;2022-12-18T05:15:36;98655.44;;;-0.54;77.38
70217;BME280;65567;55.684;37.570;2022-12-18T05:18:03;98652.88;;;-0.56;77.29
70217;BME280;65567;55.684;37.570;2022-12-18T05:20:29;98658.03;;;-0.56;77.11
70217;BME280;65567;55.684;37.570;2022-12-18T05:22:55;98652.88;;;-0.56;77.09
70217;BME280;65567;55.684;37.570;2022-12-18T05:25:22;98663.16;;;-0.57;77.09
70217;BME280;65567;55.684;37.570;2022-12-18T05:27:48;98668.31;;;-0.56;76.66
70217;BME280;65567;55.684;37.570;2022-12-18T05:30:15;98676.94;;;-0.58;77.14
70217;BME280;65567;55.684;37.570;2022-12-18T05:32:41;98688.16;;;-0.65;77.42
70217;BME280;65567;55.684;37.570;2022-12-18T05:35:09;98688.97;;;-0.62;77.26
70217;BME280;65567;55.684;37.570;2022-12-18T05:37:35;98692.38;;;-0.58;77.01
70217;BME280;65567;55.684;37.570;2022-12-18T05:40:03;98698.34;;;-0.58;76.92
70217;BME280;65567;55.684;37.570;2022-12-18T05:42:30;98703.53;;;-0.59;77.02
70217;BME280;65567;55.684;37.570;2022-12-18T05:44:56;98706.91;;;-0.57;76.80
70217;BME280;65567;55.684;37.570;2022-12-18T05:47:22;98706.97;;;-0.62;77.11
70217;BME280;65567;55.684;37.570;2022-12-18T05:49:48;98722.44;;;-0.63;77.18
70217;BME280;65567;55.684;37.570;2022-12-18T05:52:14;98720.66;;;-0.58;76.71
70217;BME280;65567;55.684;37.570;2022-12-18T05:54:40;98723.25;;;-0.58;76.80
70217;BME280;65567;55.684;37.570;2022-12-18T05:57:06;98712.22;;;-0.68;76.98
70217;BME280;65567;55.684;37.570;2022-12-18T05:59:32;98725.84;;;-0.63;76.92
70217;BME280;65567;55.684;37.570;2022-12-18T06:01:58;98727.59;;;-0.63;76.96
70217;BME280;65567;55.684;37.570;2022-12-18T06:04:27;98720.66;;;-0.58;76.81
70217;BME280;65567;55.684;37.570;2022-12-18T06:06:54;98731.84;;;-0.61;76.79
70217;BME280;65567;55.684;37.570;2022-12-18T06:09:20;98739.59;;;-0.65;76.96
70217;BME280;65567;55.684;37.570;2022-12-18T06:11:46;98741.31;;;-0.64;77.07
70217;BME280;65567;55.684;37.570;2022-12-18T06:14:12;98751.59;;;-0.64;76.79
70217;BME280;65567;55.684;37.570;2022-12-18T06:16:38;98749.00;;;-0.63;77.04
70217;BME280;65567;55.684;37.570;2022-12-18T06:19:05;98755.88;;;-0.63;77.04
70217;BME280;65567;55.684;37.570;2022-12-18T06:21:32;98755.03;;;-0.62;76.77
70217;BME280;65567;55.684;37.570;2022-12-18T06:23:58;98751.59;;;-0.64;76.95
70217;BME280;65567;55.684;37.570;2022-12-18T06:26:25;98756.75;;;-0.64;77.53
70217;BME280;65567;55.684;37.570;2022-12-18T06:28:51;98765.31;;;-0.65;77.52
70217;BME280;65567;55.684;37.570;2022-12-18T06:31:17;98773.06;;;-0.67;77.46
70217;BME280;65567;55.684;37.570;2022-12-18T06:33:44;98761.97;;;-0.71;77.21
70217;BME280;65567;55.684;37.570;2022-12-18T06:36:12;98779.06;;;-0.67;77.46
70217;BME280;65567;55.684;37.570;2022-12-18T06:38:41;98784.19;;;-0.63;77.32
70217;BME280;65567;55.684;37.570;2022-12-18T06:41:09;98792.75;;;-0.64;77.28
70217;BME280;65567;55.684;37.570;2022-12-18T06:43:35;98803.06;;;-0.66;77.38
70217;BME280;65567;55.684;37.570;2022-12-18T06:46:03;98807.31;;;-0.63;77.02
70217;BME280;65567;55.684;37.570;2022-12-18T06:48:30;98812.47;;;-0.63;77.17
70217;BME280;65567;55.684;37.570;2022-12-18T06:50:56;98827.88;;;-0.62;77.16
70217;BME280;65567;55.684;37.570;2022-12-18T06:53:22;98833.06;;;-0.65;77.36
70217;BME280;65567;55.684;37.570;2022-12-18T06:55:48;98841.56;;;-0.61;77.34
70217;BME280;65567;55.684;37.570;2022-12-18T06:58:14;98837.34;;;-0.62;77.28
70217;BME280;65567;55.684;37.570;2022-12-18T07:00:40;98848.41;;;-0.59;77.25
70217;BME280;65567;55.684;37.570;2022-12-18T07:03:06;98843.25;;;-0.59;77.25
70217;BME280;65567;55.684;37.570;2022-12-18T07:05:32;98841.63;;;-0.64;77.26
70217;BME280;65567;55.684;37.570;2022-12-18T07:07:58;98843.28;;;-0.60;77.41
70217;BME280;65567;55.684;37.570;2022-12-18T07:10:25;98844.13;;;-0.58;77.09
70217;BME280;65567;55.684;37.570;2022-12-18T07:12:51;98844.94;;;-0.56;77.27
70217;BME280;65567;55.684;37.570;2022-12-18T07:15:17;98847.56;;;-0.59;77.48
70217;BME280;65567;55.684;37.570;2022-12-18T07:17:43;98859.53;;;-0.55;77.41
70217;BME280;65567;55.684;37.570;2022-12-18T07:20:09;98864.66;;;-0.55;77.18
70217;BME280;65567;55.684;37.570;2022-12-18T07:22:35;98875.81;;;-0.53;76.92
70217;BME280;65567;55.684;37.570;2022-12-18T07:25:01;98884.31;;;-0.50;76.83
70217;BME280;65567;55.684;37.570;2022-12-18T07:27:27;98886.09;;;-0.53;76.97
70217;BME280;65567;55.684;37.570;2022-12-18T07:29:53;98891.19;;;-0.50;76.83
70217;BME280;65567;55.684;37.570;2022-12-18T07:34:45;98882.59;;;-0.47;76.79
70217;BME280;65567;55.684;37.570;2022-12-18T07:37:11;98890.31;;;-0.47;77.35
70217;BME280;65567;55.684;37.570;2022-12-18T07:39:37;98897.19;;;-0.50;77.27
70217;BME280;65567;55.684;37.570;2022-12-18T07:42:03;98896.28;;;-0.47;77.29
70217;BME280;65567;55.684;37.570;2022-12-18T07:44:47;98894.56;;;-0.45;77.04
70217;BME280;65567;55.684;37.570;2022-12-18T07:47:13;98894.56;;;-0.45;77.02
70217;BME280;65567;55.684;37.570;2022-12-18T07:49:40;98892.84;;;-0.44;77.19
70217;BME280;65567;55.684;37.570;2022-12-18T07:52:06;98898.84;;;-0.44;77.16
70217;BME280;65567;55.684;37.570;2022-12-18T08:01:48;98907.38;;;-0.42;77.03
70217;BME280;65567;55.684;37.570;2022-12-18T08:04:14;98919.38;;;-0.41;77.27
70217;BME280;65567;55.684;37.570;2022-12-18T08:06:40;98919.38;;;-0.41;77.05
70217;BME280;65567;55.684;37.570;2022-12-18T08:09:07;98925.41;;;-0.42;77.11
70217;BME280;65567;55.684;37.570;2022-12-18T08:11:34;98932.28;;;-0.42;77.27
70217;BME280;65567;55.684;37.570;2022-12-18T08:14:00;98932.22;;;-0.39;77.20
70217;BME280;65567;55.684;37.570;2022-12-18T08:16:26;98951.94;;;-0.37;77.27
70217;BME280;65567;55.684;37.570;2022-12-18T08:18:53;98964.78;;;-0.34;77.10
70217;BME280;65567;55.684;37.570;2022-12-18T08:21:22;98969.09;;;-0.36;77.36
70217;BME280;65567;55.684;37.570;2022-12-18T08:23:49;98955.38;;;-0.39;77.20
70217;BME280;65567;55.684;37.570;2022-12-18T08:26:16;98975.97;;;-0.38;77.58
70217;BME280;65567;55.684;37.570;2022-12-18T08:28:42;98978.50;;;-0.35;77.59
70217;BME280;65567;55.684;37.570;2022-12-18T08:31:18;98974.28;;;-0.42;78.00
70217;BME280;65567;55.684;37.570;2022-12-18T08:33:44;98976.81;;;-0.37;77.48
70217;BME280;65567;55.684;37.570;2022-12-18T08:36:10;98973.38;;;-0.35;77.24
70217;BME280;65567;55.684;37.570;2022-12-18T08:38:36;98979.34;;;-0.31;77.32
70217;BME280;65567;55.684;37.570;2022-12-18T08:48:21;98995.56;;;-0.27;77.46
70217;BME280;65567;55.684;37.570;2022-12-18T08:50:58;98993.00;;;-0.24;77.23
70217;BME280;65567;55.684;37.570;2022-12-18T08:53:26;99000.72;;;-0.24;77.13
70217;BME280;65567;55.684;37.570;2022-12-18T08:55:52;98993.00;;;-0.24;77.22
70217;BME280;65567;55.684;37.570;2022-12-18T08:58:19;98993.81;;;-0.24;77.09
70217;BME280;65567;55.684;37.570;2022-12-18T09:00:45;98973.31;;;-0.31;77.66
70217;BME280;65567;55.684;37.570;2022-12-18T09:03:16;98966.50;;;-0.34;77.52
70217;BME280;65567;55.684;37.570;2022-12-18T09:05:45;98981.81;;;-0.22;77.25
70217;BME280;65567;55.684;37.570;2022-12-18T09:08:11;98986.97;;;-0.22;77.37
70217;BME280;65567;55.684;37.570;2022-12-18T09:13:12;99006.63;;;-0.18;77.41
70217;BME280;65567;55.684;37.570;2022-12-18T09:15:47;99008.34;;;-0.15;77.47
70217;BME280;65567;55.684;37.570;2022-12-18T09:25:37;99041.75;;;-0.12;77.51
70217;BME280;65567;55.684;37.570;2022-12-18T09:28:12;99030.56;;;-0.09;77.37
70217;BME280;65567;55.684;37.570;2022-12-18T09:30:40;99036.63;;;-0.13;77.39
70217;BME280;65567;55.684;37.570;2022-12-18T09:35:32;99048.59;;;-0.08;76.97
70217;BME280;65567;55.684;37.570;2022-12-18T09:40:35;99065.72;;;-0.07;77.24
70217;BME280;65567;55.684;37.570;2022-12-18T10:00:26;99076.84;;;-0.02;77.64
70217;BME280;65567;55.684;37.570;2022-12-18T10:02:56;99079.44;;;-0.03;77.58
70217;BME280;65567;55.684;37.570;2022-12-18T10:08:16;99077.66;;;0.02;77.54
70217;BME280;65567;55.684;37.570;2022-12-18T10:10:50;99088.81;;;0.03;77.51
70217;BME280;65567;55.684;37.570;2022-12-18T10:21:37;99084.47;;;0.06;77.67
70217;BME280;65567;55.684;37.570;2022-12-18T10:24:32;99081.88;;;0.08;77.84
70217;BME280;65567;55.684;37.570;2022-12-18T10:27:28;99086.16;;;0.09;77.95
70217;BME280;65567;55.684;37.570;2022-12-18T10:29:54;99083.66;;;0.06;77.88
70217;BME280;65567;55.684;37.570;2022-12-18T10:32:26;99081.88;;;0.08;77.52
70217;BME280;65567;55.684;37.570;2022-12-18T10:34:55;99091.31;;;0.09;77.71
70217;BME280;65567;55.684;37.570;2022-12-18T10:37:24;99084.47;;;0.09;77.83
70217;BME280;65567;55.684;37.570;2022-12-18T10:40:13;99088.75;;;0.09;78.08
70217;BME280;65567;55.684;37.570;2022-12-18T10:42:39;99099.94;;;0.09;77.78
70217;BME280;65567;55.684;37.570;2022-12-18T10:45:14;99101.63;;;0.12;77.95
70217;BME280;65567;55.684;37.570;2022-12-18T10:54:59;99123.91;;;0.11;77.77
70217;BME280;65567;55.684;37.570;2022-12-18T10:57:38;99150.50;;;0.15;78.01
70217;BME280;65567;55.684;37.570;2022-12-18T11:02:37;99147.06;;;0.16;78.04
70217;BME280;65567;55.684;37.570;2022-12-18T11:05:24;99153.94;;;0.14;78.02
70217;BME280;65567;55.684;37.570;2022-12-18T11:10:20;99161.66;;;0.15;77.74
70217;BME280;65567;55.684;37.570;2022-12-18T11:12:46;99160.78;;;0.20;77.95
70217;BME280;65567;55.684;37.570;2022-12-18T11:15:20;99162.47;;;0.19;77.71
70217;BME280;65567;55.684;37.570;2022-12-18T11:22:59;99157.38;;;0.16;77.59
70217;BME280;65567;55.684;37.570;2022-12-18T11:25:26;99158.22;;;0.16;77.33
70217;BME280;65567;55.684;37.570;2022-12-18T11:27:55;99160.78;;;0.16;77.46
70217;BME280;65567;55.684;37.570;2022-12-18T11:37:43;99167.69;;;0.14;77.24
70217;BME280;65567;55.684;37.570;2022-12-18T11:40:30;99171.97;;;0.17;77.37
70217;BME280;65567;55.684;37.570;2022-12-18T11:43:07;99179.69;;;0.17;77.34
70217;BME280;65567;55.684;37.570;2022-12-18T11:45:47;99178.84;;;0.13;77.46
70217;BME280;65567;55.684;37.570;2022-12-18T11:50:56;99193.44;;;0.13;77.45
70217;BME280;65567;55.684;37.570;2022-12-18T11:53:25;99199.41;;;0.16;77.02
70217;BME280;65567;55.684;37.570;2022-12-18T12:01:18;99225.19;;;0.15;77.28
70217;BME280;65567;55.684;37.570;2022-12-18T12:06:54;99239.81;;;0.13;77.86
70217;BME280;65567;55.684;37.570;2022-12-18T12:12:37;99252.78;;;0.02;78.09
70217;BME280;65567;55.684;37.570;2022-12-18T12:38:08;99290.44;;;0.14;77.33
70217;BME280;65567;55.684;37.570;2022-12-18T12:40:58;99297.31;;;0.15;77.18
70217;BME280;65567;55.684;37.570;2022-12-18T13:03:52;99338.63;;;-0.01;77.72
70217;BME280;65567;55.684;37.570;2022-12-18T13:14:03;99365.19;;;0.06;77.46
70217;BME280;65567;55.684;37.570;2022-12-18T13:16:29;99363.50;;;0.07;77.01
70217;BME280;65567;55.684;37.570;2022-12-18T13:18:56;99376.38;;;0.07;77.04
70217;BME280;65567;55.684;37.570;2022-12-18T13:23:49;99397.00;;;0.01;77.13
70217;BME280;65567;55.684;37.570;2022-12-18T13:26:28;99396.13;;;0.02;77.28
70217;BME280;65567;55.684;37.570;2022-12-18T13:28:59;99384.09;;;0.04;77.22
70217;BME280;65567;55.684;37.570;2022-12-18T13:34:22;99402.16;;;0.01;77.41
70217;BME280;65567;55.684;37.570;2022-12-18T13:36:49;99405.56;;;0.03;77.34
70217;BME280;65567;55.684;37.570;2022-12-18T13:41:48;99421.91;;;0.02;77.04
70217;BME280;65567;55.684;37.570;2022-12-18T13:44:34;99420.16;;;0.04;77.40
70217;BME280;65567;55.684;37.570;2022-12-18T13:47:04;99433.09;;;-0.07;77.41
70217;BME280;65567;55.684;37.570;2022-12-18T13:49:43;99439.06;;;-0.07;77.82
70217;BME280;65567;55.684;37.570;2022-12-18T16:25:02;99709.47;;;-0.21;76.70
70217;BME280;65567;55.684;37.570;2022-12-18T20:32:21;100087.88;;;-3.87;74.48
70217;BME280;65567;55.684;37.570;2022-12-18T20:34:47;100084.34;;;-3.92;74.51
70217;BME280;65567;55.684;37.570;2022-12-18T20:37:13;100092.88;;;-3.92;74.72
70217;BME280;65567;55.684;37.570;2022-12-18T20:39:39;100087.59;;;-4.00;74.31
70217;BME280;65567;55.684;37.570;2022-12-18T20:42:05;100091.88;;;-3.99;74.49
70217;BME280;65567;55.684;37.570;2022-12-18T20:44:34;100093.50;;;-4.02;74.35
70217;BME280;65567;55.684;37.570;2022-12-18T20:47:00;100097.69;;;-4.06;74.46
70217;BME280;65567;55.684;37.570;2022-12-18T20:49:27;100094.31;;;-4.05;74.39
70217;BME280;65567;55.684;37.570;2022-12-18T20:51:55;100099.31;;;-4.11;74.31
70217;BME280;65567;55.684;37.570;2022-12-18T20:54:24;100094.19;;;-4.11;74.29
70217;BME280;65567;55.684;37.570;2022-12-18T20:56:50;100100.94;;;-4.13;74.28
70217;BME280;65567;55.684;37.570;2022-12-18T20:59:16;100081.97;;;-4.23;74.35
70217;BME280;65567;55.684;37.570;2022-12-18T21:01:42;100107.66;;;-4.18;74.24
70217;BME280;65567;55.684;37.570;2022-12-18T21:04:08;100098.22;;;-4.21;74.22
70217;BME280;65567;55.684;37.570;2022-12-18T21:06:38;100111.03;;;-4.19;74.23
70217;BME280;65567;55.684;37.570;2022-12-18T21:09:04;100109.31;;;-4.20;74.06
70217;BME280;65567;55.684;37.570;2022-12-18T21:11:31;100117.75;;;-4.24;74.16
70217;BME280;65567;55.684;37.570;2022-12-18T21:14:24;100116.84;;;-4.26;74.13
70217;BME280;65567;55.684;37.570;2022-12-18T21:16:54;100112.47;;;-4.31;74.20
70217;BME280;65567;55.684;37.570;2022-12-18T21:19:24;100119.31;;;-4.29;74.22
70217;BME280;65567;55.684;37.570;2022-12-18T21:21:53;100121.00;;;-4.32;74.16
70217;BME280;65567;55.684;37.570;2022-12-18T21:24:19;100123.50;;;-4.33;74.23
70217;BME280;65567;55.684;37.570;2022-12-18T21:26:46;100116.59;;;-4.36;74.14
70217;BME280;65567;55.684;37.570;2022-12-18T21:29:16;100125.97;;;-4.38;73.99
70217;BME280;65567;55.684;37.570;2022-12-18T21:31:42;100126.91;;;-4.34;74.04
70217;BME280;65567;55.684;37.570;2022-12-18T21:34:16;100117.41;;;-4.38;74.07
70217;BME280;65567;55.684;37.570;2022-12-18T21:36:44;100120.66;;;-4.45;73.97
70217;BME280;65567;55.684;37.570;2022-12-18T21:39:10;100130.13;;;-4.41;73.91
70217;BME280;65567;55.684;37.570;2022-12-18T21:41:38;100124.16;;;-4.42;73.92
70217;BME280;65567;55.684;37.570;2022-12-18T21:44:22;100129.25;;;-4.43;73.78
70217;BME280;65567;55.684;37.570;2022-12-18T21:46:49;100131.63;;;-4.50;73.86
70217;BME280;65567;55.684;37.570;2022-12-18T21:49:17;100133.31;;;-4.50;73.97
70217;BME280;65567;55.684;37.570;2022-12-18T21:51:44;100138.41;;;-4.52;73.84
70217;BME280;65567;55.684;37.570;2022-12-18T21:54:10;100145.22;;;-4.52;73.83
